createdAt,value
2022-08-02T00:00:50.689Z,19.80
2022-08-02T00:01:52.941Z,19.80
2022-08-02T00:03:08.361Z,19.51
2022-08-02T00:04:05.806Z,19.84
2022-08-02T00:05:02.638Z,19.40
2022-08-02T00:05:59.396Z,18.92
2022-08-02T00:06:56.203Z,19.64
2022-08-02T00:07:52.983Z,19.31
2022-08-02T00:08:49.848Z,19.40
2022-08-02T00:09:46.588Z,19.45
2022-08-02T00:10:43.487Z,19.61
2022-08-02T00:11:40.444Z,19.45
2022-08-02T00:12:40.207Z,19.60
2022-08-02T00:13:36.990Z,19.49
2022-08-02T00:14:33.971Z,19.38
2022-08-02T00:15:30.786Z,19.34
2022-08-02T00:16:38.297Z,19.32
2022-08-02T00:17:35.378Z,19.30
2022-08-02T00:18:32.090Z,19.35
2022-08-02T00:19:28.802Z,19.47
2022-08-02T00:20:25.562Z,19.26
2022-08-02T00:21:22.266Z,19.41
2022-08-02T00:22:18.979Z,18.69
2022-08-02T00:23:15.776Z,19.24
2022-08-02T00:24:28.957Z,19.45
2022-08-02T00:25:26.466Z,19.24
2022-08-02T00:26:23.486Z,19.22
2022-08-02T00:27:20.225Z,19.10
2022-08-02T00:28:21.815Z,19.27
2022-08-02T00:29:24.535Z,19.29
2022-08-02T00:30:21.305Z,19.02
2022-08-02T00:31:18.058Z,19.19
2022-08-02T00:32:14.742Z,19.42
2022-08-02T00:33:11.494Z,18.92
2022-08-02T00:34:28.865Z,19.60
2022-08-02T00:35:25.235Z,19.03
2022-08-02T00:36:22.132Z,19.49
2022-08-02T00:37:18.955Z,18.78
2022-08-02T00:38:15.768Z,19.66
2022-08-02T00:39:35.260Z,19.15
2022-08-02T00:40:29.258Z,18.89
2022-08-02T00:41:25.969Z,19.22
2022-08-02T00:42:22.738Z,19.26
2022-08-02T00:43:19.571Z,19.20
2022-08-02T00:44:17.156Z,19.38
2022-08-02T00:45:13.895Z,19.19
2022-08-02T00:46:11.286Z,19.14
2022-08-02T00:47:08.099Z,18.92
2022-08-02T00:48:06.809Z,19.17
2022-08-02T00:49:03.639Z,18.61
2022-08-02T00:50:00.431Z,19.28
2022-08-02T00:50:57.319Z,19.30
2022-08-02T00:51:54.105Z,19.00
2022-08-02T00:52:50.926Z,19.18
2022-08-02T00:53:47.771Z,19.25
2022-08-02T00:54:44.542Z,18.30
2022-08-02T00:55:41.336Z,19.19
2022-08-02T00:56:38.114Z,19.06
2022-08-02T00:57:39.176Z,19.27
2022-08-02T00:58:36.050Z,19.29
2022-08-02T00:59:33.058Z,19.03
2022-08-02T01:00:30.042Z,19.37
2022-08-02T01:01:38.923Z,18.45
2022-08-02T01:02:54.483Z,19.07
2022-08-02T01:03:51.239Z,19.24
2022-08-02T01:04:47.963Z,19.16
2022-08-02T01:06:02.453Z,19.03
2022-08-02T01:07:12.741Z,19.35
2022-08-02T01:08:11.705Z,19.28
2022-08-02T01:09:09.604Z,19.07
2022-08-02T01:10:07.503Z,19.03
2022-08-02T01:11:04.426Z,18.97
2022-08-02T01:12:02.795Z,19.01
2022-08-02T01:12:59.750Z,19.11
2022-08-02T01:14:07.089Z,19.12
2022-08-02T01:15:09.139Z,19.17
2022-08-02T01:16:16.108Z,19.09
2022-08-02T01:17:23.556Z,18.98
2022-08-02T01:18:31.939Z,19.11
2022-08-02T01:19:41.017Z,19.23
2022-08-02T01:21:01.665Z,18.33
2022-08-02T01:22:16.607Z,19.06
2022-08-02T01:23:32.107Z,18.95
2022-08-02T01:25:04.757Z,19.16
2022-08-02T01:26:11.095Z,19.17
2022-08-02T01:27:43.297Z,19.01
2022-08-02T01:29:06.994Z,18.97
2022-08-02T01:30:04.957Z,18.86
2022-08-02T01:31:13.005Z,18.63
2022-08-02T01:32:16.502Z,18.80
2022-08-02T01:33:18.514Z,18.76
2022-08-02T01:34:36.974Z,18.63
2022-08-02T01:35:47.148Z,18.67
2022-08-02T01:36:56.792Z,18.44
2022-08-02T01:37:59.114Z,18.45
2022-08-02T01:38:59.280Z,18.22
2022-08-02T01:40:05.115Z,16.24
2022-08-02T01:41:05.660Z,18.33
2022-08-02T01:42:04.471Z,18.44
2022-08-02T01:43:03.430Z,18.31
2022-08-02T01:44:03.907Z,18.40
2022-08-02T01:45:04.089Z,18.53
2022-08-02T01:46:02.897Z,18.63
2022-08-02T01:47:05.557Z,18.51
2022-08-02T01:48:04.680Z,18.51
2022-08-02T01:49:09.533Z,18.78
2022-08-02T01:50:11.882Z,18.31
2022-08-02T01:51:14.770Z,18.66
2022-08-02T01:52:22.533Z,18.65
2022-08-02T01:53:21.826Z,17.99
2022-08-02T01:54:25.006Z,18.48
2022-08-02T01:55:58.266Z,18.58
2022-08-02T01:56:57.412Z,18.51
2022-08-02T01:57:58.797Z,18.57
2022-08-02T01:58:56.431Z,18.42
2022-08-02T01:59:57.939Z,18.06
2022-08-02T02:00:58.325Z,18.28
2022-08-02T02:01:57.528Z,18.28
2022-08-02T02:02:57.773Z,18.18
2022-08-02T02:03:54.860Z,18.27
2022-08-02T02:04:56.047Z,17.53
2022-08-02T02:05:57.719Z,18.24
2022-08-02T02:06:57.368Z,18.05
2022-08-02T02:07:58.575Z,18.07
2022-08-02T02:08:59.796Z,17.53
2022-08-02T02:10:02.275Z,17.82
2022-08-02T02:12:06.132Z,17.94
2022-08-02T02:12:19.890Z,18.15
2022-08-02T02:13:20.234Z,18.19
2022-08-02T02:14:25.237Z,18.07
2022-08-02T02:15:25.354Z,18.23
2022-08-02T02:16:23.340Z,18.29
2022-08-02T02:17:57.133Z,17.78
2022-08-02T02:18:41.740Z,17.93
2022-08-02T02:19:39.761Z,17.39
2022-08-02T02:20:36.873Z,17.29
2022-08-02T02:21:35.011Z,17.80
2022-08-02T02:22:32.622Z,17.37
2022-08-02T02:23:29.489Z,17.53
2022-08-02T02:24:33.076Z,17.58
2022-08-02T02:25:36.451Z,17.75
2022-08-02T02:26:41.419Z,17.74
2022-08-02T02:28:00.862Z,17.70
2022-08-02T02:29:02.243Z,17.64
2022-08-02T02:30:00.732Z,17.47
2022-08-02T02:31:18.857Z,17.41
2022-08-02T02:32:18.089Z,17.51
2022-08-02T02:33:19.163Z,17.56
2022-08-02T02:34:28.479Z,17.71
2022-08-02T02:35:32.134Z,17.65
2022-08-02T02:36:30.918Z,17.45
2022-08-02T02:37:30.642Z,17.67
2022-08-02T02:38:31.759Z,17.63
2022-08-02T02:39:32.224Z,17.64
2022-08-02T02:40:29.978Z,17.39
2022-08-02T02:41:27.103Z,17.43
2022-08-02T02:42:32.331Z,17.48
2022-08-02T02:43:33.350Z,17.48
2022-08-02T02:44:32.399Z,17.45
2022-08-02T02:45:31.977Z,16.89
2022-08-02T02:46:33.885Z,17.60
2022-08-02T02:47:41.078Z,17.58
2022-08-02T02:48:39.880Z,17.48
2022-08-02T02:49:38.992Z,17.34
2022-08-02T02:50:37.405Z,17.25
2022-08-02T02:51:35.495Z,17.08
2022-08-02T02:52:32.980Z,17.27
2022-08-02T02:54:33.588Z,17.20
2022-08-02T02:54:50.765Z,17.36
2022-08-02T02:56:06.911Z,17.46
2022-08-02T02:57:06.515Z,17.54
2022-08-02T02:58:04.321Z,17.38
2022-08-02T02:59:02.385Z,17.30
2022-08-02T03:00:00.191Z,17.43
2022-08-02T03:01:16.436Z,17.53
2022-08-02T03:02:14.828Z,17.38
2022-08-02T03:03:13.651Z,17.26
2022-08-02T03:04:12.602Z,17.12
2022-08-02T03:05:11.843Z,17.37
2022-08-02T03:06:15.648Z,17.33
2022-08-02T03:07:13.004Z,17.75
2022-08-02T03:08:09.970Z,17.49
2022-08-02T03:09:07.702Z,17.70
2022-08-02T03:10:07.005Z,17.81
2022-08-02T03:11:04.590Z,17.82
2022-08-02T03:12:03.726Z,17.19
2022-08-02T03:13:01.452Z,17.81
2022-08-02T03:14:00.582Z,16.96
2022-08-02T03:14:59.057Z,17.61
2022-08-02T03:15:57.268Z,17.53
2022-08-02T03:16:55.799Z,16.99
2022-08-02T03:17:52.636Z,17.40
2022-08-02T03:18:49.347Z,17.45
2022-08-02T03:19:46.738Z,17.48
2022-08-02T03:20:43.477Z,17.46
2022-08-02T03:21:42.237Z,16.57
2022-08-02T03:22:39.269Z,17.19
2022-08-02T03:23:36.168Z,16.68
2022-08-02T03:24:32.956Z,17.37
2022-08-02T03:25:29.745Z,16.96
2022-08-02T03:26:26.463Z,17.39
2022-08-02T03:27:23.215Z,17.22
2022-08-02T03:28:19.932Z,17.61
2022-08-02T03:29:16.700Z,17.68
2022-08-02T03:30:14.594Z,17.78
2022-08-02T03:31:12.626Z,17.52
2022-08-02T03:32:09.834Z,16.96
2022-08-02T03:33:06.859Z,17.84
2022-08-02T03:34:04.390Z,17.85
2022-08-02T03:35:02.485Z,17.32
2022-08-02T03:36:08.548Z,17.02
2022-08-02T03:37:05.989Z,17.54
2022-08-02T03:38:05.716Z,17.72
2022-08-02T03:39:03.572Z,17.84
2022-08-02T03:40:02.396Z,17.76
2022-08-02T03:41:02.322Z,17.03
2022-08-02T03:41:59.278Z,17.09
2022-08-02T03:42:56.639Z,17.07
2022-08-02T03:43:54.519Z,17.86
2022-08-02T03:44:53.422Z,17.24
2022-08-02T03:45:52.079Z,17.79
2022-08-02T03:46:49.444Z,17.58
2022-08-02T03:47:46.847Z,17.75
2022-08-02T03:48:44.573Z,17.27
2022-08-02T03:49:44.042Z,18.01
2022-08-02T03:50:42.786Z,17.95
2022-08-02T03:51:39.776Z,17.08
2022-08-02T03:52:37.314Z,17.82
2022-08-02T03:53:34.592Z,17.58
2022-08-02T03:54:34.624Z,17.51
2022-08-02T03:55:42.928Z,17.56
2022-08-02T03:56:39.894Z,17.20
2022-08-02T03:57:43.088Z,17.49
2022-08-02T03:58:39.829Z,17.61
2022-08-02T03:59:54.403Z,17.72
2022-08-02T04:00:53.807Z,17.87
2022-08-02T04:01:50.618Z,17.89
2022-08-02T04:02:48.156Z,17.37
2022-08-02T04:03:44.837Z,16.86
2022-08-02T04:04:41.687Z,17.52
2022-08-02T04:05:38.436Z,17.32
2022-08-02T04:06:55.123Z,17.41
2022-08-02T04:08:32.876Z,17.30
2022-08-02T04:09:09.656Z,17.44
2022-08-02T04:10:07.158Z,17.19
2022-08-02T04:11:22.302Z,17.39
2022-08-02T04:12:19.087Z,17.61
2022-08-02T04:13:15.914Z,16.91
2022-08-02T04:14:13.818Z,16.82
2022-08-02T04:15:13.954Z,17.69
2022-08-02T04:16:18.635Z,17.67
2022-08-02T04:17:19.878Z,17.83
2022-08-02T04:18:20.027Z,17.15
2022-08-02T04:19:31.335Z,17.67
2022-08-02T04:20:33.686Z,17.65
2022-08-02T04:21:48.729Z,17.86
2022-08-02T04:23:04.499Z,17.68
2022-08-02T04:24:04.166Z,17.21
2022-08-02T04:25:04.928Z,17.77
2022-08-02T04:26:05.629Z,17.11
2022-08-02T04:27:51.015Z,18.09
2022-08-02T04:28:29.135Z,18.42
2022-08-02T04:29:27.919Z,18.15
2022-08-02T04:30:25.470Z,18.06
2022-08-02T04:31:23.083Z,17.95
2022-08-02T04:32:22.163Z,17.70
2022-08-02T04:33:19.476Z,18.01
2022-08-02T04:34:16.346Z,17.77
2022-08-02T04:35:40.295Z,17.88
2022-08-02T04:36:38.268Z,17.94
2022-08-02T04:37:37.246Z,17.94
2022-08-02T04:38:34.461Z,17.71
2022-08-02T04:39:31.209Z,17.48
2022-08-02T04:40:28.054Z,18.18
2022-08-02T04:41:37.245Z,18.43
2022-08-02T04:42:38.384Z,18.29
2022-08-02T04:43:35.377Z,18.60
2022-08-02T04:44:32.227Z,18.46
2022-08-02T04:45:29.805Z,18.19
2022-08-02T04:46:26.831Z,18.34
2022-08-02T04:48:01.464Z,18.37
2022-08-02T04:48:40.377Z,18.44
2022-08-02T04:49:37.146Z,17.74
2022-08-02T04:50:34.757Z,17.42
2022-08-02T04:51:38.199Z,18.17
2022-08-02T04:52:35.524Z,18.31
2022-08-02T04:53:32.262Z,18.15
2022-08-02T04:54:29.000Z,17.72
2022-08-02T04:55:29.007Z,18.41
2022-08-02T04:56:26.137Z,17.52
2022-08-02T04:57:41.391Z,17.76
2022-08-02T04:58:49.560Z,18.58
2022-08-02T04:59:46.309Z,18.54
2022-08-02T05:00:43.273Z,18.80
2022-08-02T05:01:42.330Z,18.75
2022-08-02T05:02:39.082Z,18.92
2022-08-02T05:03:36.005Z,18.92
2022-08-02T05:04:32.675Z,19.09
2022-08-02T05:05:29.759Z,19.01
2022-08-02T05:06:26.547Z,17.21
2022-08-02T05:07:23.280Z,18.92
2022-08-02T05:08:20.053Z,19.42
2022-08-02T05:09:16.741Z,18.77
2022-08-02T05:10:14.067Z,19.53
2022-08-02T05:11:10.789Z,19.47
2022-08-02T05:12:08.103Z,19.52
2022-08-02T05:13:06.571Z,19.57
2022-08-02T05:14:04.125Z,19.42
2022-08-02T05:15:00.959Z,19.05
2022-08-02T05:16:01.234Z,20.21
2022-08-02T05:16:58.001Z,20.32
2022-08-02T05:17:54.729Z,20.33
2022-08-02T05:18:51.673Z,20.18
2022-08-02T05:19:48.411Z,20.04
2022-08-02T05:20:45.301Z,20.26
2022-08-02T05:21:42.056Z,19.08
2022-08-02T05:22:38.861Z,20.48
2022-08-02T05:23:35.839Z,20.47
2022-08-02T05:24:32.581Z,19.94
2022-08-02T05:25:29.327Z,19.86
2022-08-02T05:26:26.040Z,20.59
2022-08-02T05:27:22.755Z,20.79
2022-08-02T05:28:19.542Z,20.80
2022-08-02T05:29:16.680Z,20.80
2022-08-02T05:30:13.447Z,20.75
2022-08-02T05:31:13.271Z,20.55
2022-08-02T05:32:10.654Z,20.09
2022-08-02T05:33:07.732Z,20.58
2022-08-02T05:34:06.626Z,21.04
2022-08-02T05:35:07.268Z,21.07
2022-08-02T05:36:04.197Z,20.89
2022-08-02T05:37:00.946Z,21.16
2022-08-02T05:37:57.713Z,21.21
2022-08-02T05:38:59.814Z,20.70
2022-08-02T05:40:02.004Z,21.31
2022-08-02T05:40:58.850Z,20.96
2022-08-02T05:41:55.595Z,21.20
2022-08-02T05:42:52.316Z,20.53
2022-08-02T05:43:49.015Z,20.88
2022-08-02T05:44:45.708Z,21.46
2022-08-02T05:45:42.506Z,21.43
2022-08-02T05:46:39.226Z,21.55
2022-08-02T05:47:36.819Z,21.73
2022-08-02T05:48:33.543Z,21.73
2022-08-02T05:49:30.424Z,21.54
2022-08-02T05:50:27.290Z,21.62
2022-08-02T05:51:35.500Z,21.52
2022-08-02T05:52:59.744Z,21.78
2022-08-02T05:54:10.683Z,22.02
2022-08-02T05:55:15.866Z,22.08
2022-08-02T05:56:34.043Z,21.48
2022-08-02T05:58:16.028Z,22.22
2022-08-02T05:59:18.105Z,22.19
2022-08-02T06:00:15.994Z,22.20
2022-08-02T06:01:20.399Z,22.31
2022-08-02T06:02:30.475Z,22.31
2022-08-02T06:03:43.551Z,22.15
2022-08-02T06:05:11.598Z,22.23
2022-08-02T06:06:17.722Z,22.25
2022-08-02T06:07:16.145Z,22.50
2022-08-02T06:08:14.395Z,22.52
2022-08-02T06:09:26.934Z,22.05
2022-08-02T06:10:28.132Z,22.69
2022-08-02T06:11:36.193Z,22.66
2022-08-02T06:12:41.242Z,22.31
2022-08-02T06:13:38.326Z,22.73
2022-08-02T06:14:35.057Z,22.84
2022-08-02T06:15:31.965Z,22.50
2022-08-02T06:16:31.833Z,22.57
2022-08-02T06:17:30.607Z,22.68
2022-08-02T06:18:29.262Z,22.78
2022-08-02T06:19:26.450Z,22.60
2022-08-02T06:20:26.267Z,22.82
2022-08-02T06:22:32.907Z,22.92
2022-08-02T06:22:43.728Z,22.21
2022-08-02T06:23:42.792Z,22.89
2022-08-02T06:24:56.695Z,23.07
2022-08-02T06:25:54.247Z,22.43
2022-08-02T06:26:55.070Z,23.18
2022-08-02T06:27:53.923Z,23.15
2022-08-02T06:28:52.939Z,22.96
2022-08-02T06:29:49.984Z,23.18
2022-08-02T06:30:47.048Z,23.17
2022-08-02T06:31:45.405Z,23.20
2022-08-02T06:32:45.544Z,23.17
2022-08-02T06:33:42.273Z,23.01
2022-08-02T06:34:40.022Z,23.02
2022-08-02T06:35:57.950Z,22.89
2022-08-02T06:37:21.583Z,23.15
2022-08-02T06:38:24.322Z,22.74
2022-08-02T06:39:30.209Z,23.34
2022-08-02T06:40:45.869Z,23.18
2022-08-02T06:41:44.159Z,23.25
2022-08-02T06:42:51.815Z,23.23
2022-08-02T06:44:19.637Z,23.17
2022-08-02T06:45:18.087Z,23.57
2022-08-02T06:47:07.437Z,23.45
2022-08-02T06:47:32.081Z,23.43
2022-08-02T06:48:30.776Z,23.22
2022-08-02T06:49:52.182Z,23.31
2022-08-02T06:50:44.457Z,22.86
2022-08-02T06:51:41.235Z,23.52
2022-08-02T06:52:38.934Z,23.45
2022-08-02T06:53:35.634Z,23.01
2022-08-02T06:54:32.379Z,23.33
2022-08-02T06:55:29.628Z,23.64
2022-08-02T06:56:26.545Z,23.52
2022-08-02T06:57:23.269Z,23.65
2022-08-02T06:58:20.000Z,23.21
2022-08-02T06:59:16.734Z,23.80
2022-08-02T07:00:13.934Z,23.30
2022-08-02T07:01:10.905Z,23.28
2022-08-02T07:02:11.663Z,23.44
2022-08-02T07:03:09.105Z,23.17
2022-08-02T07:04:06.118Z,23.50
2022-08-02T07:05:04.435Z,23.19
2022-08-02T07:06:01.224Z,23.69
2022-08-02T07:06:58.058Z,23.42
2022-08-02T07:07:54.843Z,23.62
2022-08-02T07:09:18.256Z,23.59
2022-08-02T07:10:09.066Z,22.95
2022-08-02T07:11:07.001Z,23.45
2022-08-02T07:12:04.666Z,23.70
2022-08-02T07:13:01.450Z,23.41
2022-08-02T07:13:58.207Z,23.89
2022-08-02T07:14:54.949Z,23.37
2022-08-02T07:15:51.775Z,24.03
2022-08-02T07:16:48.505Z,23.93
2022-08-02T07:17:45.254Z,24.05
2022-08-02T07:18:41.962Z,24.04
2022-08-02T07:19:40.002Z,23.74
2022-08-02T07:22:46.807Z,23.37
2022-08-02T07:23:43.572Z,23.82
2022-08-02T07:24:40.840Z,24.09
2022-08-02T07:26:02.947Z,24.00
2022-08-02T07:27:10.414Z,24.38
2022-08-02T07:28:20.812Z,24.15
2022-08-02T07:29:21.016Z,24.25
2022-08-02T07:30:17.710Z,24.20
2022-08-02T07:31:14.540Z,24.03
2022-08-02T07:32:11.396Z,24.14
2022-08-02T07:33:08.344Z,24.23
2022-08-02T07:34:25.057Z,23.78
2022-08-02T07:35:22.491Z,24.36
2022-08-02T07:36:22.759Z,24.00
2022-08-02T07:37:35.743Z,24.37
2022-08-02T07:38:38.095Z,24.35
2022-08-02T07:39:34.837Z,23.89
2022-08-02T07:40:32.626Z,24.14
2022-08-02T07:41:30.283Z,24.26
2022-08-02T07:42:28.756Z,24.34
2022-08-02T07:43:25.475Z,24.00
2022-08-02T07:44:23.460Z,24.68
2022-08-02T07:45:22.829Z,24.62
2022-08-02T07:46:19.565Z,24.85
2022-08-02T07:47:16.431Z,24.52
2022-08-02T07:48:13.455Z,24.80
2022-08-02T07:49:10.335Z,24.56
2022-08-02T07:50:09.763Z,24.26
2022-08-02T07:51:06.524Z,24.71
2022-08-02T07:52:04.588Z,24.56
2022-08-02T07:53:01.360Z,24.46
2022-08-02T07:54:02.552Z,24.57
2022-08-02T07:55:01.294Z,24.69
2022-08-02T07:55:58.017Z,25.01
2022-08-02T07:56:58.445Z,25.01
2022-08-02T07:57:55.798Z,24.78
2022-08-02T07:58:52.655Z,24.70
2022-08-02T07:59:50.723Z,24.47
2022-08-02T08:00:47.502Z,24.61
2022-08-02T08:01:46.191Z,24.58
2022-08-02T08:02:43.913Z,24.57
2022-08-02T08:03:40.727Z,24.71
2022-08-02T08:04:37.599Z,24.95
2022-08-02T08:05:34.415Z,25.07
2022-08-02T08:06:32.027Z,25.06
2022-08-02T08:07:28.924Z,25.20
2022-08-02T08:08:25.647Z,24.82
2022-08-02T08:09:22.529Z,24.87
2022-08-02T08:10:19.221Z,25.15
2022-08-02T08:11:15.933Z,25.34
2022-08-02T08:12:13.550Z,25.20
2022-08-02T08:13:10.568Z,24.75
2022-08-02T08:14:07.356Z,25.40
2022-08-02T08:15:05.451Z,25.29
2022-08-02T08:16:02.510Z,25.46
2022-08-02T08:16:59.538Z,24.87
2022-08-02T08:17:57.361Z,24.78
2022-08-02T08:18:54.063Z,25.26
2022-08-02T08:19:52.783Z,25.32
2022-08-02T08:20:50.302Z,25.49
2022-08-02T08:21:47.002Z,25.89
2022-08-02T08:22:43.957Z,25.98
2022-08-02T08:23:41.274Z,25.91
2022-08-02T08:24:38.513Z,25.98
2022-08-02T08:25:39.695Z,25.53
2022-08-02T08:26:39.890Z,25.93
2022-08-02T08:27:37.249Z,26.05
2022-08-02T08:28:35.556Z,25.63
2022-08-02T08:29:32.570Z,25.59
2022-08-02T08:30:29.319Z,25.36
2022-08-02T08:31:26.086Z,26.13
2022-08-02T08:32:23.327Z,25.90
2022-08-02T08:33:20.549Z,26.28
2022-08-02T08:34:17.312Z,26.12
2022-08-02T08:35:14.351Z,25.43
2022-08-02T08:36:11.091Z,25.05
2022-08-02T08:37:07.889Z,25.76
2022-08-02T08:38:07.947Z,26.09
2022-08-02T08:39:04.965Z,26.16
2022-08-02T08:40:01.723Z,26.15
2022-08-02T08:40:58.570Z,26.23
2022-08-02T08:41:55.839Z,25.99
2022-08-02T08:42:53.360Z,25.94
2022-08-02T08:43:53.253Z,24.89
2022-08-02T08:44:51.472Z,25.92
2022-08-02T08:45:55.609Z,26.08
2022-08-02T08:46:56.309Z,25.74
2022-08-02T08:48:01.602Z,25.94
2022-08-02T08:49:07.977Z,25.95
2022-08-02T08:50:17.889Z,25.73
2022-08-02T08:51:21.157Z,26.10
2022-08-02T08:52:23.887Z,26.14
2022-08-02T08:53:22.007Z,26.17
2022-08-02T08:54:36.263Z,25.82
2022-08-02T08:55:34.973Z,25.85
2022-08-02T08:56:36.200Z,25.78
2022-08-02T08:57:36.937Z,25.88
2022-08-02T08:58:33.722Z,25.93
2022-08-02T08:59:30.474Z,25.71
2022-08-02T09:00:36.754Z,25.50
2022-08-02T09:01:49.998Z,25.74
2022-08-02T09:02:47.990Z,25.70
2022-08-02T09:03:45.460Z,25.82
2022-08-02T09:04:42.512Z,26.19
2022-08-02T09:05:51.572Z,26.15
2022-08-02T09:06:48.731Z,25.94
2022-08-02T09:07:50.469Z,26.28
2022-08-02T09:08:47.291Z,26.15
2022-08-02T09:09:44.062Z,25.28
2022-08-02T09:10:45.023Z,26.25
2022-08-02T09:11:41.796Z,26.53
2022-08-02T09:12:38.538Z,26.63
2022-08-02T09:13:45.747Z,26.40
2022-08-02T09:14:43.046Z,26.33
2022-08-02T09:15:41.253Z,26.26
2022-08-02T09:16:40.577Z,26.18
2022-08-02T09:17:50.614Z,25.76
2022-08-02T09:18:47.686Z,26.09
2022-08-02T09:19:45.823Z,26.19
2022-08-02T09:20:57.507Z,26.66
2022-08-02T09:22:06.666Z,26.95
2022-08-02T09:23:10.995Z,27.15
2022-08-02T09:24:19.812Z,26.83
2022-08-02T09:25:16.869Z,27.12
2022-08-02T09:26:19.530Z,26.99
2022-08-02T09:27:21.144Z,26.42
2022-08-02T09:28:18.077Z,26.62
2022-08-02T09:29:15.952Z,26.32
2022-08-02T09:30:15.444Z,26.13
2022-08-02T09:31:14.787Z,26.53
2022-08-02T09:32:11.839Z,26.67
2022-08-02T09:33:09.649Z,26.71
2022-08-02T09:34:07.013Z,26.68
2022-08-02T09:35:04.509Z,26.88
2022-08-02T09:36:08.439Z,26.64
2022-08-02T09:37:05.375Z,26.79
2022-08-02T09:38:12.991Z,26.68
2022-08-02T09:39:12.620Z,26.57
2022-08-02T09:40:10.810Z,26.36
2022-08-02T09:41:21.810Z,26.27
2022-08-02T09:42:18.774Z,26.54
2022-08-02T09:43:17.275Z,26.40
2022-08-02T09:44:16.561Z,26.35
2022-08-02T09:45:13.253Z,26.46
2022-08-02T09:46:23.365Z,26.34
2022-08-02T09:47:21.334Z,26.25
2022-08-02T09:48:18.070Z,26.34
2022-08-02T09:49:17.259Z,26.58
2022-08-02T09:50:15.177Z,26.25
2022-08-02T09:51:12.025Z,26.46
2022-08-02T09:52:11.398Z,25.99
2022-08-02T09:53:13.981Z,26.20
2022-08-02T09:54:16.967Z,26.03
2022-08-02T09:55:14.311Z,25.90
2022-08-02T09:56:29.499Z,26.76
2022-08-02T09:57:29.881Z,26.26
2022-08-02T09:58:27.540Z,26.79
2022-08-02T09:59:25.855Z,26.50
2022-08-02T10:00:37.447Z,27.16
2022-08-02T10:01:50.486Z,26.95
2022-08-02T10:03:14.279Z,27.20
2022-08-02T10:04:24.948Z,27.08
2022-08-02T10:05:22.676Z,26.59
2022-08-02T10:06:20.478Z,26.81
2022-08-02T10:07:18.143Z,27.26
2022-08-02T10:08:15.363Z,26.47
2022-08-02T10:09:13.373Z,26.99
2022-08-02T10:10:10.706Z,27.02
2022-08-02T10:11:07.596Z,26.72
2022-08-02T10:12:05.639Z,26.62
2022-08-02T10:13:03.266Z,27.19
2022-08-02T10:14:00.932Z,27.15
2022-08-02T10:14:59.740Z,27.21
2022-08-02T10:15:57.691Z,27.09
2022-08-02T10:16:57.372Z,27.03
2022-08-02T10:17:54.195Z,26.98
2022-08-02T10:18:54.267Z,27.11
2022-08-02T10:20:02.076Z,26.99
2022-08-02T10:21:02.631Z,26.31
2022-08-02T10:22:07.015Z,26.88
2022-08-02T10:23:06.073Z,26.97
2022-08-02T10:24:11.501Z,26.84
2022-08-02T10:25:09.119Z,27.01
2022-08-02T10:26:08.082Z,27.18
2022-08-02T10:27:12.626Z,27.17
2022-08-02T10:28:16.320Z,27.01
2022-08-02T10:29:19.168Z,27.18
2022-08-02T10:30:16.142Z,26.74
2022-08-02T10:31:19.121Z,26.87
2022-08-02T10:32:29.979Z,27.33
2022-08-02T10:33:30.290Z,27.35
2022-08-02T10:34:51.098Z,27.72
2022-08-02T10:36:04.510Z,27.93
2022-08-02T10:37:08.300Z,27.56
2022-08-02T10:38:09.130Z,27.72
2022-08-02T10:39:07.110Z,27.97
2022-08-02T10:40:04.260Z,27.11
2022-08-02T10:41:01.119Z,27.85
2022-08-02T10:41:57.920Z,27.67
2022-08-02T10:43:01.046Z,27.89
2022-08-02T10:44:00.126Z,27.15
2022-08-02T10:45:10.393Z,27.06
2022-08-02T10:46:33.424Z,27.49
2022-08-02T10:47:30.390Z,27.41
2022-08-02T10:48:27.106Z,27.32
2022-08-02T10:49:39.117Z,26.87
2022-08-02T10:50:45.288Z,27.80
2022-08-02T10:52:00.455Z,28.02
2022-08-02T10:53:27.501Z,28.15
2022-08-02T10:54:32.037Z,28.16
2022-08-02T10:55:45.145Z,28.14
2022-08-02T10:56:50.259Z,28.09
2022-08-02T10:57:51.664Z,28.15
2022-08-02T10:59:08.432Z,28.19
2022-08-02T11:00:27.579Z,27.94
2022-08-02T11:01:38.697Z,28.24
2022-08-02T11:02:43.787Z,27.92
2022-08-02T11:03:41.589Z,27.77
2022-08-02T11:04:44.039Z,27.88
2022-08-02T11:05:42.202Z,27.33
2022-08-02T11:07:14.189Z,27.83
2022-08-02T11:08:22.812Z,27.92
2022-08-02T11:09:31.807Z,27.76
2022-08-02T11:10:30.835Z,27.77
2022-08-02T11:11:54.319Z,27.52
2022-08-02T11:12:59.479Z,27.76
2022-08-02T11:14:08.836Z,26.99
2022-08-02T11:15:07.539Z,27.60
2022-08-02T11:16:11.321Z,27.82
2022-08-02T11:17:13.339Z,27.83
2022-08-02T11:18:10.291Z,27.90
2022-08-02T11:19:07.339Z,27.78
2022-08-02T11:20:13.100Z,28.12
2022-08-02T11:21:32.275Z,27.81
2022-08-02T11:22:29.064Z,27.67
2022-08-02T11:23:44.026Z,27.68
2022-08-02T11:24:42.599Z,27.85
2022-08-02T11:26:02.575Z,27.83
2022-08-02T11:26:57.960Z,28.28
2022-08-02T11:27:59.933Z,28.28
2022-08-02T11:28:58.511Z,28.22
2022-08-02T11:29:56.056Z,28.13
2022-08-02T11:31:02.862Z,27.22
2022-08-02T11:32:00.224Z,27.95
2022-08-02T11:32:58.980Z,28.11
2022-08-02T11:33:55.879Z,27.74
2022-08-02T11:34:54.492Z,28.09
2022-08-02T11:35:51.949Z,28.05
2022-08-02T11:36:51.011Z,27.85
2022-08-02T11:37:47.803Z,27.69
2022-08-02T11:38:45.703Z,27.47
2022-08-02T11:39:51.568Z,27.72
2022-08-02T11:40:49.569Z,27.96
2022-08-02T11:41:58.369Z,27.92
2022-08-02T11:42:55.716Z,27.22
2022-08-02T11:43:55.395Z,27.03
2022-08-02T11:44:52.320Z,27.37
2022-08-02T11:45:52.343Z,27.77
2022-08-02T11:46:55.264Z,27.84
2022-08-02T11:47:54.185Z,27.68
2022-08-02T11:48:51.184Z,27.90
2022-08-02T11:49:47.967Z,27.92
2022-08-02T11:50:44.690Z,27.88
2022-08-02T11:51:55.019Z,27.26
2022-08-02T11:52:55.510Z,27.55
2022-08-02T11:53:57.546Z,28.15
2022-08-02T11:54:54.243Z,28.01
2022-08-02T11:55:57.159Z,27.75
2022-08-02T11:56:54.538Z,27.78
2022-08-02T11:58:03.762Z,27.41
2022-08-02T11:59:06.343Z,27.92
2022-08-02T12:00:13.800Z,27.24
2022-08-02T12:01:10.652Z,27.63
2022-08-02T12:02:09.789Z,27.15
2022-08-02T12:03:07.865Z,27.83
2022-08-02T12:04:06.739Z,27.85
2022-08-02T12:05:09.202Z,27.68
2022-08-02T12:06:10.839Z,27.74
2022-08-02T12:07:14.941Z,27.83
2022-08-02T12:08:12.422Z,27.79
2022-08-02T12:09:17.863Z,27.70
2022-08-02T12:10:24.942Z,27.79
2022-08-02T12:11:21.705Z,27.49
2022-08-02T12:12:18.970Z,28.03
2022-08-02T12:13:15.805Z,28.34
2022-08-02T12:14:12.571Z,28.24
2022-08-02T12:15:09.763Z,28.37
2022-08-02T12:16:32.969Z,28.34
2022-08-02T12:17:48.246Z,27.63
2022-08-02T12:19:07.252Z,28.29
2022-08-02T12:20:04.413Z,28.03
2022-08-02T12:21:01.914Z,28.38
2022-08-02T12:22:09.478Z,28.57
2022-08-02T12:23:06.365Z,28.07
2022-08-02T12:24:03.243Z,28.22
2022-08-02T12:25:00.098Z,27.81
2022-08-02T12:26:09.406Z,27.81
2022-08-02T12:27:28.917Z,28.62
2022-08-02T12:28:26.782Z,28.07
2022-08-02T12:29:58.724Z,27.98
2022-08-02T12:31:00.450Z,27.49
2022-08-02T12:31:58.169Z,27.61
2022-08-02T12:33:13.311Z,27.23
2022-08-02T12:34:17.347Z,27.77
2022-08-02T12:35:26.580Z,27.37
2022-08-02T12:36:30.634Z,27.61
2022-08-02T12:37:27.474Z,27.55
2022-08-02T12:38:24.189Z,27.55
2022-08-02T12:39:20.911Z,27.80
2022-08-02T12:40:32.194Z,27.77
2022-08-02T12:41:31.010Z,27.58
2022-08-02T12:42:29.065Z,28.03
2022-08-02T12:43:25.906Z,28.05
2022-08-02T12:44:22.762Z,27.98
2022-08-02T12:45:19.822Z,27.85
2022-08-02T12:46:24.738Z,27.48
2022-08-02T12:47:22.506Z,28.11
2022-08-02T12:49:15.960Z,28.31
2022-08-02T12:50:17.088Z,28.34
2022-08-02T12:51:25.190Z,28.19
2022-08-02T12:52:42.078Z,28.10
2022-08-02T12:53:43.748Z,28.26
2022-08-02T12:54:41.166Z,28.30
2022-08-02T12:56:01.845Z,28.26
2022-08-02T12:57:14.547Z,28.37
2022-08-02T12:58:11.530Z,28.13
2022-08-02T12:59:08.334Z,28.42
2022-08-02T13:00:05.807Z,28.51
2022-08-02T13:01:02.569Z,28.12
2022-08-02T13:02:08.398Z,28.65
2022-08-02T13:04:08.002Z,28.76
2022-08-02T13:04:24.573Z,28.64
2022-08-02T13:05:22.736Z,28.58
2022-08-02T13:06:41.828Z,28.32
2022-08-02T13:07:37.191Z,28.06
2022-08-02T13:08:33.951Z,28.36
2022-08-02T13:09:37.215Z,28.31
2022-08-02T13:10:34.005Z,27.91
2022-08-02T13:11:30.802Z,28.45
2022-08-02T13:12:27.587Z,28.39
2022-08-02T13:13:24.346Z,27.91
2022-08-02T13:14:21.152Z,28.45